sensor_id;sensor_type;location;lat;lon;timestamp;P1;P2;P0
77365;PMS5003;66430;50.182;11.704;2023-02-18T00:00:10;15;15;
77365;PMS5003;66430;50.182;11.704;2023-02-18T00:02:35;15;15;
77365;PMS5003;66430;50.182;11.704;2023-02-18T00:05:00;14;13;
77365;PMS5003;66430;50.182;11.704;2023-02-18T00:07:27;11;11;
77365;PMS5003;66430;50.182;11.704;2023-02-18T00:09:50;11;11;
77365;PMS5003;66430;50.182;11.704;2023-02-18T00:12:16;12;10;
77365;PMS5003;66430;50.182;11.704;2023-02-18T00:14:41;10;9;
77365;PMS5003;66430;50.182;11.704;2023-02-18T00:17:07;11;11;
77365;PMS5003;66430;50.182;11.704;2023-02-18T00:19:32;14;14;
77365;PMS5003;66430;50.182;11.704;2023-02-18T00:21:58;11;11;
77365;PMS5003;66430;50.182;11.704;2023-02-18T00:24:23;13;13;
77365;PMS5003;66430;50.182;11.704;2023-02-18T00:26:49;15;15;
77365;PMS5003;66430;50.182;11.704;2023-02-18T00:29:15;14;14;
77365;PMS5003;66430;50.182;11.704;2023-02-18T00:31:40;13;13;
77365;PMS5003;66430;50.182;11.704;2023-02-18T00:34:05;12;12;
77365;PMS5003;66430;50.182;11.704;2023-02-18T00:36:30;13;12;
77365;PMS5003;66430;50.182;11.704;2023-02-18T00:38:58;10;10;
77365;PMS5003;66430;50.182;11.704;2023-02-18T00:41:21;12;12;
77365;PMS5003;66430;50.182;11.704;2023-02-18T00:43:46;10;10;
77365;PMS5003;66430;50.182;11.704;2023-02-18T00:46:14;12;12;
77365;PMS5003;66430;50.182;11.704;2023-02-18T00:48:37;16;15;
77365;PMS5003;66430;50.182;11.704;2023-02-18T00:51:03;11;11;
77365;PMS5003;66430;50.182;11.704;2023-02-18T00:53:28;12;12;
77365;PMS5003;66430;50.182;11.704;2023-02-18T00:55:53;14;14;
77365;PMS5003;66430;50.182;11.704;2023-02-18T00:58:20;13;13;
77365;PMS5003;66430;50.182;11.704;2023-02-18T01:00:44;15;12;
77365;PMS5003;66430;50.182;11.704;2023-02-18T01:03:11;14;13;
77365;PMS5003;66430;50.182;11.704;2023-02-18T01:05:35;15;14;
77365;PMS5003;66430;50.182;11.704;2023-02-18T01:08:00;11;11;
77365;PMS5003;66430;50.182;11.704;2023-02-18T01:10:26;16;14;
77365;PMS5003;66430;50.182;11.704;2023-02-18T01:12:51;13;13;
77365;PMS5003;66430;50.182;11.704;2023-02-18T01:15:17;15;14;
77365;PMS5003;66430;50.182;11.704;2023-02-18T01:17:43;12;12;
77365;PMS5003;66430;50.182;11.704;2023-02-18T01:20:08;17;15;
77365;PMS5003;66430;50.182;11.704;2023-02-18T01:22:33;14;13;
77365;PMS5003;66430;50.182;11.704;2023-02-18T01:24:59;17;17;
77365;PMS5003;66430;50.182;11.704;2023-02-18T01:27:24;10;10;
77365;PMS5003;66430;50.182;11.704;2023-02-18T01:29:50;13;11;
77365;PMS5003;66430;50.182;11.704;2023-02-18T01:32:15;14;14;
77365;PMS5003;66430;50.182;11.704;2023-02-18T01:34:40;16;15;
77365;PMS5003;66430;50.182;11.704;2023-02-18T01:37:06;13;13;
77365;PMS5003;66430;50.182;11.704;2023-02-18T01:39:32;15;14;
77365;PMS5003;66430;50.182;11.704;2023-02-18T01:41:57;14;11;
77365;PMS5003;66430;50.182;11.704;2023-02-18T01:44:23;18;17;
77365;PMS5003;66430;50.182;11.704;2023-02-18T01:46:48;11;10;
77365;PMS5003;66430;50.182;11.704;2023-02-18T01:49:15;14;13;
77365;PMS5003;66430;50.182;11.704;2023-02-18T01:51:39;12;12;
77365;PMS5003;66430;50.182;11.704;2023-02-18T01:54:04;11;11;
77365;PMS5003;66430;50.182;11.704;2023-02-18T01:56:29;11;11;
77365;PMS5003;66430;50.182;11.704;2023-02-18T01:58:55;13;13;
77365;PMS5003;66430;50.182;11.704;2023-02-18T02:01:21;12;12;
77365;PMS5003;66430;50.182;11.704;2023-02-18T02:03:45;12;12;
77365;PMS5003;66430;50.182;11.704;2023-02-18T02:06:13;13;13;
77365;PMS5003;66430;50.182;11.704;2023-02-18T02:08:36;12;10;
77365;PMS5003;66430;50.182;11.704;2023-02-18T02:11:05;12;12;
77365;PMS5003;66430;50.182;11.704;2023-02-18T02:13:28;15;14;
77365;PMS5003;66430;50.182;11.704;2023-02-18T02:15:52;15;12;
77365;PMS5003;66430;50.182;11.704;2023-02-18T02:18:24;13;12;
77365;PMS5003;66430;50.182;11.704;2023-02-18T02:20:50;12;12;
77365;PMS5003;66430;50.182;11.704;2023-02-18T02:23:20;13;11;
77365;PMS5003;66430;50.182;11.704;2023-02-18T02:25:42;21;20;
77365;PMS5003;66430;50.182;11.704;2023-02-18T02:30:32;13;13;
77365;PMS5003;66430;50.182;11.704;2023-02-18T02:32:56;16;14;
77365;PMS5003;66430;50.182;11.704;2023-02-18T02:35:16;10;10;
77365;PMS5003;66430;50.182;11.704;2023-02-18T02:37:43;15;13;
77365;PMS5003;66430;50.182;11.704;2023-02-18T02:40:10;16;16;
77365;PMS5003;66430;50.182;11.704;2023-02-18T02:42:35;13;13;
77365;PMS5003;66430;50.182;11.704;2023-02-18T02:44:59;9;9;
77365;PMS5003;66430;50.182;11.704;2023-02-18T02:47:25;11;11;
77365;PMS5003;66430;50.182;11.704;2023-02-18T02:49:48;14;12;
77365;PMS5003;66430;50.182;11.704;2023-02-18T02:52:14;13;13;
77365;PMS5003;66430;50.182;11.704;2023-02-18T02:54:38;10;10;
77365;PMS5003;66430;50.182;11.704;2023-02-18T02:57:05;12;12;
77365;PMS5003;66430;50.182;11.704;2023-02-18T02:59:29;10;10;
77365;PMS5003;66430;50.182;11.704;2023-02-18T03:02:00;12;12;
77365;PMS5003;66430;50.182;11.704;2023-02-18T03:04:23;14;11;
77365;PMS5003;66430;50.182;11.704;2023-02-18T03:09:13;16;15;
77365;PMS5003;66430;50.182;11.704;2023-02-18T03:11:40;13;11;
77365;PMS5003;66430;50.182;11.704;2023-02-18T03:14:03;13;12;
77365;PMS5003;66430;50.182;11.704;2023-02-18T03:16:31;15;14;
77365;PMS5003;66430;50.182;11.704;2023-02-18T03:18:56;12;11;
77365;PMS5003;66430;50.182;11.704;2023-02-18T03:21:21;12;12;
77365;PMS5003;66430;50.182;11.704;2023-02-18T03:23:45;14;12;
77365;PMS5003;66430;50.182;11.704;2023-02-18T03:26:10;13;13;
77365;PMS5003;66430;50.182;11.704;2023-02-18T03:28:35;15;13;
77365;PMS5003;66430;50.182;11.704;2023-02-18T03:31:02;12;12;
77365;PMS5003;66430;50.182;11.704;2023-02-18T03:33:27;14;14;
77365;PMS5003;66430;50.182;11.704;2023-02-18T03:35:51;17;15;
77365;PMS5003;66430;50.182;11.704;2023-02-18T03:38:17;16;16;
77365;PMS5003;66430;50.182;11.704;2023-02-18T03:40:42;12;12;
77365;PMS5003;66430;50.182;11.704;2023-02-18T03:43:07;15;14;
77365;PMS5003;66430;50.182;11.704;2023-02-18T03:45:32;15;13;
77365;PMS5003;66430;50.182;11.704;2023-02-18T03:47:58;17;16;
77365;PMS5003;66430;50.182;11.704;2023-02-18T03:50:24;14;12;
77365;PMS5003;66430;50.182;11.704;2023-02-18T03:52:50;12;12;
77365;PMS5003;66430;50.182;11.704;2023-02-18T03:55:17;12;11;
77365;PMS5003;66430;50.182;11.704;2023-02-18T03:57:40;15;15;
77365;PMS5003;66430;50.182;11.704;2023-02-18T04:00:06;15;15;
77365;PMS5003;66430;50.182;11.704;2023-02-18T04:02:31;14;14;
77365;PMS5003;66430;50.182;11.704;2023-02-18T04:04:56;18;17;
77365;PMS5003;66430;50.182;11.704;2023-02-18T04:07:21;14;13;
77365;PMS5003;66430;50.182;11.704;2023-02-18T04:09:47;12;12;
77365;PMS5003;66430;50.182;11.704;2023-02-18T04:12:12;13;11;
77365;PMS5003;66430;50.182;11.704;2023-02-18T04:14:37;12;12;
77365;PMS5003;66430;50.182;11.704;2023-02-18T04:17:02;12;12;
77365;PMS5003;66430;50.182;11.704;2023-02-18T04:19:29;9;8;
77365;PMS5003;66430;50.182;11.704;2023-02-18T04:21:54;15;13;
77365;PMS5003;66430;50.182;11.704;2023-02-18T04:24:19;11;10;
77365;PMS5003;66430;50.182;11.704;2023-02-18T04:26:44;11;10;
77365;PMS5003;66430;50.182;11.704;2023-02-18T04:29:09;10;10;
77365;PMS5003;66430;50.182;11.704;2023-02-18T04:31:35;11;9;
77365;PMS5003;66430;50.182;11.704;2023-02-18T04:34:01;14;12;
77365;PMS5003;66430;50.182;11.704;2023-02-18T04:36:25;13;12;
77365;PMS5003;66430;50.182;11.704;2023-02-18T04:38:51;12;10;
77365;PMS5003;66430;50.182;11.704;2023-02-18T04:41:16;10;10;
77365;PMS5003;66430;50.182;11.704;2023-02-18T04:43:42;12;11;
77365;PMS5003;66430;50.182;11.704;2023-02-18T04:46:08;9;9;
77365;PMS5003;66430;50.182;11.704;2023-02-18T04:48:33;16;15;
77365;PMS5003;66430;50.182;11.704;2023-02-18T04:50:58;10;10;
77365;PMS5003;66430;50.182;11.704;2023-02-18T04:53:23;14;14;
77365;PMS5003;66430;50.182;11.704;2023-02-18T04:55:50;13;12;
77365;PMS5003;66430;50.182;11.704;2023-02-18T04:58:16;15;14;
77365;PMS5003;66430;50.182;11.704;2023-02-18T05:00:39;12;10;
77365;PMS5003;66430;50.182;11.704;2023-02-18T05:03:05;15;15;
77365;PMS5003;66430;50.182;11.704;2023-02-18T05:05:32;10;10;
77365;PMS5003;66430;50.182;11.704;2023-02-18T05:07:55;17;17;
77365;PMS5003;66430;50.182;11.704;2023-02-18T05:10:21;12;12;
77365;PMS5003;66430;50.182;11.704;2023-02-18T05:12:46;10;10;
77365;PMS5003;66430;50.182;11.704;2023-02-18T05:15:12;14;14;
77365;PMS5003;66430;50.182;11.704;2023-02-18T05:17:39;12;11;
77365;PMS5003;66430;50.182;11.704;2023-02-18T05:20:04;16;16;
77365;PMS5003;66430;50.182;11.704;2023-02-18T05:22:28;12;11;
77365;PMS5003;66430;50.182;11.704;2023-02-18T05:24:54;13;13;
77365;PMS5003;66430;50.182;11.704;2023-02-18T05:27:20;12;12;
77365;PMS5003;66430;50.182;11.704;2023-02-18T05:29:44;10;10;
77365;PMS5003;66430;50.182;11.704;2023-02-18T05:32:10;11;10;
77365;PMS5003;66430;50.182;11.704;2023-02-18T05:34:36;12;10;
77365;PMS5003;66430;50.182;11.704;2023-02-18T05:37:00;11;11;
77365;PMS5003;66430;50.182;11.704;2023-02-18T05:39:28;11;9;
77365;PMS5003;66430;50.182;11.704;2023-02-18T05:41:51;12;10;
77365;PMS5003;66430;50.182;11.704;2023-02-18T05:44:17;10;10;
77365;PMS5003;66430;50.182;11.704;2023-02-18T05:46:42;9;9;
77365;PMS5003;66430;50.182;11.704;2023-02-18T05:49:08;9;9;
77365;PMS5003;66430;50.182;11.704;2023-02-18T05:51:34;6;6;
77365;PMS5003;66430;50.182;11.704;2023-02-18T05:53:59;9;9;
77365;PMS5003;66430;50.182;11.704;2023-02-18T05:56:23;8;8;
77365;PMS5003;66430;50.182;11.704;2023-02-18T05:58:49;9;9;
77365;PMS5003;66430;50.182;11.704;2023-02-18T06:01:14;7;6;
77365;PMS5003;66430;50.182;11.704;2023-02-18T06:03:40;10;7;
77365;PMS5003;66430;50.182;11.704;2023-02-18T06:06:06;7;7;
77365;PMS5003;66430;50.182;11.704;2023-02-18T06:08:31;8;7;
77365;PMS5003;66430;50.182;11.704;2023-02-18T06:10:57;6;6;
77365;PMS5003;66430;50.182;11.704;2023-02-18T06:13:22;8;8;
77365;PMS5003;66430;50.182;11.704;2023-02-18T06:15:49;8;8;
77365;PMS5003;66430;50.182;11.704;2023-02-18T06:18:14;5;5;
77365;PMS5003;66430;50.182;11.704;2023-02-18T06:20:38;5;5;
77365;PMS5003;66430;50.182;11.704;2023-02-18T06:23:03;8;7;
77365;PMS5003;66430;50.182;11.704;2023-02-18T06:25:29;9;9;
77365;PMS5003;66430;50.182;11.704;2023-02-18T06:27:57;5;5;
77365;PMS5003;66430;50.182;11.704;2023-02-18T06:30:22;7;7;
77365;PMS5003;66430;50.182;11.704;2023-02-18T06:32:45;6;6;
77365;PMS5003;66430;50.182;11.704;2023-02-18T06:35:11;7;6;
77365;PMS5003;66430;50.182;11.704;2023-02-18T06:37:36;4;4;
77365;PMS5003;66430;50.182;11.704;2023-02-18T06:40:02;6;6;
77365;PMS5003;66430;50.182;11.704;2023-02-18T06:42:27;7;6;
77365;PMS5003;66430;50.182;11.704;2023-02-18T06:44:52;4;4;
77365;PMS5003;66430;50.182;11.704;2023-02-18T06:47:18;5;5;
77365;PMS5003;66430;50.182;11.704;2023-02-18T06:49:43;5;5;
77365;PMS5003;66430;50.182;11.704;2023-02-18T06:52:09;3;3;
77365;PMS5003;66430;50.182;11.704;2023-02-18T06:54:34;4;4;
77365;PMS5003;66430;50.182;11.704;2023-02-18T06:57:00;3;3;
77365;PMS5003;66430;50.182;11.704;2023-02-18T06:59:25;3;3;
77365;PMS5003;66430;50.182;11.704;2023-02-18T07:01:51;5;5;
77365;PMS5003;66430;50.182;11.704;2023-02-18T07:04:16;3;3;
77365;PMS5003;66430;50.182;11.704;2023-02-18T07:06:42;6;5;
77365;PMS5003;66430;50.182;11.704;2023-02-18T07:09:07;3;3;
77365;PMS5003;66430;50.182;11.704;2023-02-18T07:11:32;4;4;
77365;PMS5003;66430;50.182;11.704;2023-02-18T07:13:58;4;4;
77365;PMS5003;66430;50.182;11.704;2023-02-18T07:16:23;3;2;
77365;PMS5003;66430;50.182;11.704;2023-02-18T07:18:49;3;3;
77365;PMS5003;66430;50.182;11.704;2023-02-18T07:21:14;3;2;
77365;PMS5003;66430;50.182;11.704;2023-02-18T07:23:40;4;4;
77365;PMS5003;66430;50.182;11.704;2023-02-18T07:26:06;2;2;
77365;PMS5003;66430;50.182;11.704;2023-02-18T07:28:31;4;4;
77365;PMS5003;66430;50.182;11.704;2023-02-18T07:30:56;4;4;
77365;PMS5003;66430;50.182;11.704;2023-02-18T07:33:22;5;5;
77365;PMS5003;66430;50.182;11.704;2023-02-18T07:35:51;2;2;
77365;PMS5003;66430;50.182;11.704;2023-02-18T07:38:13;3;3;
77365;PMS5003;66430;50.182;11.704;2023-02-18T07:40:38;4;4;
77365;PMS5003;66430;50.182;11.704;2023-02-18T07:43:03;2;2;
77365;PMS5003;66430;50.182;11.704;2023-02-18T07:45:29;2;2;
77365;PMS5003;66430;50.182;11.704;2023-02-18T07:47:54;2;2;
77365;PMS5003;66430;50.182;11.704;2023-02-18T07:50:21;3;2;
77365;PMS5003;66430;50.182;11.704;2023-02-18T07:52:45;2;2;
77365;PMS5003;66430;50.182;11.704;2023-02-18T07:55:11;0;0;
77365;PMS5003;66430;50.182;11.704;2023-02-18T07:57:36;1;1;
77365;PMS5003;66430;50.182;11.704;2023-02-18T08:00:02;1;1;
77365;PMS5003;66430;50.182;11.704;2023-02-18T08:02:27;1;1;
77365;PMS5003;66430;50.182;11.704;2023-02-18T08:04:52;1;1;
77365;PMS5003;66430;50.182;11.704;2023-02-18T08:07:18;1;1;
77365;PMS5003;66430;50.182;11.704;2023-02-18T08:09:44;0;0;
77365;PMS5003;66430;50.182;11.704;2023-02-18T08:12:09;1;1;
77365;PMS5003;66430;50.182;11.704;2023-02-18T08:14:35;1;1;
77365;PMS5003;66430;50.182;11.704;2023-02-18T08:17:00;1;1;
77365;PMS5003;66430;50.182;11.704;2023-02-18T08:19:25;0;0;
77365;PMS5003;66430;50.182;11.704;2023-02-18T08:21:51;0;0;
77365;PMS5003;66430;50.182;11.704;2023-02-18T08:24:16;1;1;
77365;PMS5003;66430;50.182;11.704;2023-02-18T08:26:41;0;0;
77365;PMS5003;66430;50.182;11.704;2023-02-18T08:29:07;1;1;
77365;PMS5003;66430;50.182;11.704;2023-02-18T08:31:32;0;0;
77365;PMS5003;66430;50.182;11.704;2023-02-18T08:33:58;2;2;
77365;PMS5003;66430;50.182;11.704;2023-02-18T08:36:23;2;2;
77365;PMS5003;66430;50.182;11.704;2023-02-18T08:38:49;3;3;
77365;PMS5003;66430;50.182;11.704;2023-02-18T08:41:14;5;5;
77365;PMS5003;66430;50.182;11.704;2023-02-18T08:43:39;6;6;
77365;PMS5003;66430;50.182;11.704;2023-02-18T08:46:05;6;6;
77365;PMS5003;66430;50.182;11.704;2023-02-18T08:48:30;7;7;
77365;PMS5003;66430;50.182;11.704;2023-02-18T08:50:56;9;9;
77365;PMS5003;66430;50.182;11.704;2023-02-18T08:53:21;9;9;
77365;PMS5003;66430;50.182;11.704;2023-02-18T08:55:47;9;9;
77365;PMS5003;66430;50.182;11.704;2023-02-18T08:58:13;11;11;
77365;PMS5003;66430;50.182;11.704;2023-02-18T09:00:38;14;13;
77365;PMS5003;66430;50.182;11.704;2023-02-18T09:03:04;17;17;
77365;PMS5003;66430;50.182;11.704;2023-02-18T09:05:28;12;12;
77365;PMS5003;66430;50.182;11.704;2023-02-18T09:07:55;12;12;
77365;PMS5003;66430;50.182;11.704;2023-02-18T09:10:19;13;12;
77365;PMS5003;66430;50.182;11.704;2023-02-18T09:12:44;14;14;
77365;PMS5003;66430;50.182;11.704;2023-02-18T09:15:09;16;14;
77365;PMS5003;66430;50.182;11.704;2023-02-18T09:17:35;13;13;
77365;PMS5003;66430;50.182;11.704;2023-02-18T09:20:00;18;18;
77365;PMS5003;66430;50.182;11.704;2023-02-18T09:22:25;20;19;
77365;PMS5003;66430;50.182;11.704;2023-02-18T09:24:51;19;15;
77365;PMS5003;66430;50.182;11.704;2023-02-18T09:27:16;20;17;
77365;PMS5003;66430;50.182;11.704;2023-02-18T09:29:41;15;14;
77365;PMS5003;66430;50.182;11.704;2023-02-18T09:32:07;18;16;
77365;PMS5003;66430;50.182;11.704;2023-02-18T09:34:35;24;21;
77365;PMS5003;66430;50.182;11.704;2023-02-18T09:36:58;17;16;
77365;PMS5003;66430;50.182;11.704;2023-02-18T09:39:23;21;18;
77365;PMS5003;66430;50.182;11.704;2023-02-18T09:41:49;21;19;
77365;PMS5003;66430;50.182;11.704;2023-02-18T09:44:17;17;16;
77365;PMS5003;66430;50.182;11.704;2023-02-18T09:46:42;18;17;
77365;PMS5003;66430;50.182;11.704;2023-02-18T09:49:06;17;17;
77365;PMS5003;66430;50.182;11.704;2023-02-18T09:51:31;21;19;
77365;PMS5003;66430;50.182;11.704;2023-02-18T09:53:59;25;21;
77365;PMS5003;66430;50.182;11.704;2023-02-18T09:56:25;19;19;
77365;PMS5003;66430;50.182;11.704;2023-02-18T09:58:48;18;18;
77365;PMS5003;66430;50.182;11.704;2023-02-18T10:01:14;20;20;
77365;PMS5003;66430;50.182;11.704;2023-02-18T10:10:55;21;21;
77365;PMS5003;66430;50.182;11.704;2023-02-18T10:13:21;23;20;
77365;PMS5003;66430;50.182;11.704;2023-02-18T10:15:45;21;18;
77365;PMS5003;66430;50.182;11.704;2023-02-18T10:18:15;25;23;
77365;PMS5003;66430;50.182;11.704;2023-02-18T10:20:35;22;19;
77365;PMS5003;66430;50.182;11.704;2023-02-18T10:23:01;17;17;
77365;PMS5003;66430;50.182;11.704;2023-02-18T10:25:26;18;16;
77365;PMS5003;66430;50.182;11.704;2023-02-18T10:27:51;19;19;
77365;PMS5003;66430;50.182;11.704;2023-02-18T10:30:21;20;20;
77365;PMS5003;66430;50.182;11.704;2023-02-18T10:32:43;23;22;
77365;PMS5003;66430;50.182;11.704;2023-02-18T10:35:10;21;20;
77365;PMS5003;66430;50.182;11.704;2023-02-18T10:37:38;22;21;
77365;PMS5003;66430;50.182;11.704;2023-02-18T10:39:59;18;16;
77365;PMS5003;66430;50.182;11.704;2023-02-18T10:42:26;19;19;
77365;PMS5003;66430;50.182;11.704;2023-02-18T10:44:52;23;21;
77365;PMS5003;66430;50.182;11.704;2023-02-18T10:47:15;20;18;
77365;PMS5003;66430;50.182;11.704;2023-02-18T10:49:46;19;18;
77365;PMS5003;66430;50.182;11.704;2023-02-18T10:52:04;19;19;
77365;PMS5003;66430;50.182;11.704;2023-02-18T10:57:00;20;18;
77365;PMS5003;66430;50.182;11.704;2023-02-18T10:59:22;16;15;
77365;PMS5003;66430;50.182;11.704;2023-02-18T11:01:52;20;19;
77365;PMS5003;66430;50.182;11.704;2023-02-18T11:04:13;17;17;
77365;PMS5003;66430;50.182;11.704;2023-02-18T11:06:38;21;20;
77365;PMS5003;66430;50.182;11.704;2023-02-18T11:09:02;19;17;
77365;PMS5003;66430;50.182;11.704;2023-02-18T11:11:28;18;18;
77365;PMS5003;66430;50.182;11.704;2023-02-18T11:13:54;20;20;
77365;PMS5003;66430;50.182;11.704;2023-02-18T11:16:20;17;17;
77365;PMS5003;66430;50.182;11.704;2023-02-18T11:18:44;18;17;
77365;PMS5003;66430;50.182;11.704;2023-02-18T11:26:02;19;16;
77365;PMS5003;66430;50.182;11.704;2023-02-18T11:28:28;17;17;
77365;PMS5003;66430;50.182;11.704;2023-02-18T11:30:57;17;17;
77365;PMS5003;66430;50.182;11.704;2023-02-18T11:33:17;19;18;
77365;PMS5003;66430;50.182;11.704;2023-02-18T11:35:47;20;18;
77365;PMS5003;66430;50.182;11.704;2023-02-18T11:38:13;16;16;
77365;PMS5003;66430;50.182;11.704;2023-02-18T11:40:34;18;17;
77365;PMS5003;66430;50.182;11.704;2023-02-18T11:43:02;15;15;
77365;PMS5003;66430;50.182;11.704;2023-02-18T11:45:28;18;18;
77365;PMS5003;66430;50.182;11.704;2023-02-18T11:47:57;18;17;
77365;PMS5003;66430;50.182;11.704;2023-02-18T11:50:20;16;16;
77365;PMS5003;66430;50.182;11.704;2023-02-18T11:52:42;15;15;
77365;PMS5003;66430;50.182;11.704;2023-02-18T11:55:12;18;18;
77365;PMS5003;66430;50.182;11.704;2023-02-18T11:57:33;15;14;
77365;PMS5003;66430;50.182;11.704;2023-02-18T12:00:00;14;14;
77365;PMS5003;66430;50.182;11.704;2023-02-18T12:02:27;14;14;
77365;PMS5003;66430;50.182;11.704;2023-02-18T12:04:50;13;13;
77365;PMS5003;66430;50.182;11.704;2023-02-18T12:07:16;14;14;
77365;PMS5003;66430;50.182;11.704;2023-02-18T12:09:41;14;12;
77365;PMS5003;66430;50.182;11.704;2023-02-18T12:12:07;16;14;
77365;PMS5003;66430;50.182;11.704;2023-02-18T12:14:32;20;20;
77365;PMS5003;66430;50.182;11.704;2023-02-18T12:21:52;13;13;
77365;PMS5003;66430;50.182;11.704;2023-02-18T12:24:16;12;12;
77365;PMS5003;66430;50.182;11.704;2023-02-18T12:26:42;10;10;
77365;PMS5003;66430;50.182;11.704;2023-02-18T12:29:08;12;12;
77365;PMS5003;66430;50.182;11.704;2023-02-18T12:31:33;13;11;
77365;PMS5003;66430;50.182;11.704;2023-02-18T12:33:59;10;10;
77365;PMS5003;66430;50.182;11.704;2023-02-18T12:36:23;7;7;
77365;PMS5003;66430;50.182;11.704;2023-02-18T12:38:50;10;10;
77365;PMS5003;66430;50.182;11.704;2023-02-18T12:41:16;9;8;
77365;PMS5003;66430;50.182;11.704;2023-02-18T12:43:39;11;10;
77365;PMS5003;66430;50.182;11.704;2023-02-18T12:46:13;8;8;
77365;PMS5003;66430;50.182;11.704;2023-02-18T12:48:33;10;10;
77365;PMS5003;66430;50.182;11.704;2023-02-18T12:50:56;7;6;
77365;PMS5003;66430;50.182;11.704;2023-02-18T12:53:22;9;9;
77365;PMS5003;66430;50.182;11.704;2023-02-18T12:55:48;8;7;
77365;PMS5003;66430;50.182;11.704;2023-02-18T12:58:12;8;8;
77365;PMS5003;66430;50.182;11.704;2023-02-18T13:05:28;7;7;
77365;PMS5003;66430;50.182;11.704;2023-02-18T13:07:54;6;6;
77365;PMS5003;66430;50.182;11.704;2023-02-18T13:10:20;7;6;
77365;PMS5003;66430;50.182;11.704;2023-02-18T13:12:42;6;6;
77365;PMS5003;66430;50.182;11.704;2023-02-18T13:15:12;6;6;
77365;PMS5003;66430;50.182;11.704;2023-02-18T13:17:34;6;6;
77365;PMS5003;66430;50.182;11.704;2023-02-18T13:20:00;6;6;
77365;PMS5003;66430;50.182;11.704;2023-02-18T13:22:24;7;6;
77365;PMS5003;66430;50.182;11.704;2023-02-18T13:24:50;5;5;
77365;PMS5003;66430;50.182;11.704;2023-02-18T13:27:17;6;6;
77365;PMS5003;66430;50.182;11.704;2023-02-18T13:29:43;5;5;
77365;PMS5003;66430;50.182;11.704;2023-02-18T13:32:07;5;5;
77365;PMS5003;66430;50.182;11.704;2023-02-18T13:34:33;6;6;
77365;PMS5003;66430;50.182;11.704;2023-02-18T13:37:00;5;5;
77365;PMS5003;66430;50.182;11.704;2023-02-18T13:39:23;4;4;
77365;PMS5003;66430;50.182;11.704;2023-02-18T13:41:49;8;4;
77365;PMS5003;66430;50.182;11.704;2023-02-18T13:49:05;5;5;
77365;PMS5003;66430;50.182;11.704;2023-02-18T13:51:30;5;5;
77365;PMS5003;66430;50.182;11.704;2023-02-18T13:53:58;5;5;
77365;PMS5003;66430;50.182;11.704;2023-02-18T13:56:22;4;4;
77365;PMS5003;66430;50.182;11.704;2023-02-18T13:58:48;3;3;
77365;PMS5003;66430;50.182;11.704;2023-02-18T14:01:13;4;4;
77365;PMS5003;66430;50.182;11.704;2023-02-18T14:08:28;4;4;
77365;PMS5003;66430;50.182;11.704;2023-02-18T14:13:20;3;3;
77365;PMS5003;66430;50.182;11.704;2023-02-18T14:15:47;3;3;
77365;PMS5003;66430;50.182;11.704;2023-02-18T14:27:52;4;4;
77365;PMS5003;66430;50.182;11.704;2023-02-18T14:30:19;3;3;
77365;PMS5003;66430;50.182;11.704;2023-02-18T14:32:43;3;3;
77365;PMS5003;66430;50.182;11.704;2023-02-18T14:35:13;5;3;
77365;PMS5003;66430;50.182;11.704;2023-02-18T14:37:38;3;3;
77365;PMS5003;66430;50.182;11.704;2023-02-18T14:40:02;3;3;
77365;PMS5003;66430;50.182;11.704;2023-02-18T14:42:28;2;2;
77365;PMS5003;66430;50.182;11.704;2023-02-18T14:44:57;3;3;
77365;PMS5003;66430;50.182;11.704;2023-02-18T14:47:22;6;4;
77365;PMS5003;66430;50.182;11.704;2023-02-18T14:49:47;2;2;
77365;PMS5003;66430;50.182;11.704;2023-02-18T14:52:10;5;2;
77365;PMS5003;66430;50.182;11.704;2023-02-18T14:54:35;2;2;
77365;PMS5003;66430;50.182;11.704;2023-02-18T14:56:58;4;3;
77365;PMS5003;66430;50.182;11.704;2023-02-18T14:59:23;4;4;
77365;PMS5003;66430;50.182;11.704;2023-02-18T15:01:48;4;3;
77365;PMS5003;66430;50.182;11.704;2023-02-18T15:04:14;3;3;
77365;PMS5003;66430;50.182;11.704;2023-02-18T15:06:39;4;4;
77365;PMS5003;66430;50.182;11.704;2023-02-18T15:11:34;4;4;
77365;PMS5003;66430;50.182;11.704;2023-02-18T15:13:56;4;4;
77365;PMS5003;66430;50.182;11.704;2023-02-18T15:16:22;5;5;
77365;PMS5003;66430;50.182;11.704;2023-02-18T15:18:48;4;4;
77365;PMS5003;66430;50.182;11.704;2023-02-18T15:21:15;4;4;
77365;PMS5003;66430;50.182;11.704;2023-02-18T15:23:38;2;2;
77365;PMS5003;66430;50.182;11.704;2023-02-18T15:26:03;4;4;
77365;PMS5003;66430;50.182;11.704;2023-02-18T15:28:29;4;4;
77365;PMS5003;66430;50.182;11.704;2023-02-18T15:30:55;3;3;
77365;PMS5003;66430;50.182;11.704;2023-02-18T15:33:19;4;4;
77365;PMS5003;66430;50.182;11.704;2023-02-18T15:35:45;4;4;
77365;PMS5003;66430;50.182;11.704;2023-02-18T15:38:12;4;3;
77365;PMS5003;66430;50.182;11.704;2023-02-18T15:40:36;4;4;
77365;PMS5003;66430;50.182;11.704;2023-02-18T15:43:01;3;3;
77365;PMS5003;66430;50.182;11.704;2023-02-18T15:45:28;4;4;
77365;PMS5003;66430;50.182;11.704;2023-02-18T15:47:53;3;3;
77365;PMS5003;66430;50.182;11.704;2023-02-18T15:50:18;3;3;
77365;PMS5003;66430;50.182;11.704;2023-02-18T15:52:42;5;5;
77365;PMS5003;66430;50.182;11.704;2023-02-18T15:55:10;3;3;
77365;PMS5003;66430;50.182;11.704;2023-02-18T15:57:33;4;3;
77365;PMS5003;66430;50.182;11.704;2023-02-18T16:00:02;3;3;
77365;PMS5003;66430;50.182;11.704;2023-02-18T16:02:24;4;3;
77365;PMS5003;66430;50.182;11.704;2023-02-18T16:04:51;5;5;
77365;PMS5003;66430;50.182;11.704;2023-02-18T16:07:18;5;3;
77365;PMS5003;66430;50.182;11.704;2023-02-18T16:09:41;4;4;
77365;PMS5003;66430;50.182;11.704;2023-02-18T16:12:11;3;3;
77365;PMS5003;66430;50.182;11.704;2023-02-18T16:14:34;2;2;
77365;PMS5003;66430;50.182;11.704;2023-02-18T16:19:23;5;5;
77365;PMS5003;66430;50.182;11.704;2023-02-18T16:21:48;3;3;
77365;PMS5003;66430;50.182;11.704;2023-02-18T16:24:22;5;5;
77365;PMS5003;66430;50.182;11.704;2023-02-18T16:26:40;3;3;
77365;PMS5003;66430;50.182;11.704;2023-02-18T16:29:10;4;4;
77365;PMS5003;66430;50.182;11.704;2023-02-18T16:31:30;3;3;
77365;PMS5003;66430;50.182;11.704;2023-02-18T16:33:55;4;3;
77365;PMS5003;66430;50.182;11.704;2023-02-18T16:36:21;4;4;
77365;PMS5003;66430;50.182;11.704;2023-02-18T16:38:46;3;3;
77365;PMS5003;66430;50.182;11.704;2023-02-18T16:41:12;5;4;
77365;PMS5003;66430;50.182;11.704;2023-02-18T16:43:37;3;3;
77365;PMS5003;66430;50.182;11.704;2023-02-18T16:46:05;6;6;
77365;PMS5003;66430;50.182;11.704;2023-02-18T16:48:30;3;3;
77365;PMS5003;66430;50.182;11.704;2023-02-18T16:50:53;4;4;
77365;PMS5003;66430;50.182;11.704;2023-02-18T16:53:19;6;5;
77365;PMS5003;66430;50.182;11.704;2023-02-18T16:55:44;6;6;
77365;PMS5003;66430;50.182;11.704;2023-02-18T16:58:10;4;4;